FKYS/NSI METAR and TAF weather

Enter ICAO airport designator
Station Type Date Time Source
FKYS METAR 2023/01/30 11:00 UTC NOAA

FKYS 301100Z VRB03KT 9999 BKN013 FEW020TCU 29/23 Q1016 TEMPO TS


Station Type Date Time Source
FKYS Decoded METAR 2023/01/30 11:00 UTC NOAA

Yaounde, Cameroon (FKYS) 03-50N 011-31E 760M
Jan 30, 2023 - 06:00 AM EST / 2023.01.30 1100 UTC
Wind: Variable at 3 MPH (3 KT):0
Visibility: greater than 7 mile(s):0
Sky conditions: mostly cloudy
Weather: Towering cumulus clouds observed
Temperature: 84 F (29 C)
Dew Point: 73 F (23 C)
Relative Humidity: 70%
Pressure (altimeter): 30.00 in. Hg (1016 hPa)
ob: FKYS 301100Z VRB03KT 9999 BKN013 FEW020TCU 29/23 Q1016 TEMPO TS
cycle: 11

Station Type Date Time Source
FKYS TAF 2023/01/30 12:27 UTC NOAA

TAF FKYS 301121Z 3012/3118 VRB03KT 9999 BKN013 FEW023CB
TEMPO 3013/3019 TS PROB30
TEMPO 3015/3018 4000 TSRA
BECMG 3019/3021 BKN006
TEMPO 3105/3107 3000 BR
BECMG 3107/3109 BKN016

Example: see airport list